createdAt,value
2023-03-08T00:00:01.028Z,67.50
2023-03-08T00:02:28.397Z,67.40
2023-03-08T00:04:56.271Z,67.42
2023-03-08T00:07:24.404Z,67.46
2023-03-08T00:09:51.691Z,67.51
2023-03-08T00:12:22.880Z,67.57
2023-03-08T00:14:51.137Z,67.66
2023-03-08T00:17:18.656Z,68.70
2023-03-08T00:19:46.393Z,68.21
2023-03-08T00:22:13.814Z,68.50
2023-03-08T00:24:41.127Z,68.45
2023-03-08T00:27:08.460Z,68.37
2023-03-08T00:29:35.895Z,67.93
2023-03-08T00:32:03.444Z,67.82
2023-03-08T00:34:30.784Z,67.60
2023-03-08T00:36:58.080Z,67.91
2023-03-08T00:39:25.389Z,67.65
2023-03-08T00:41:52.714Z,67.30
2023-03-08T00:44:20.125Z,67.97
2023-03-08T00:46:47.524Z,68.09
2023-03-08T00:49:14.989Z,68.23
2023-03-08T00:51:42.426Z,67.92
2023-03-08T00:54:10.750Z,67.69
2023-03-08T00:56:38.726Z,67.76
2023-03-08T00:59:06.352Z,67.59
2023-03-08T01:01:34.719Z,67.49
2023-03-08T01:04:03.828Z,67.22
2023-03-08T01:06:31.182Z,67.82
2023-03-08T01:08:58.537Z,68.17
2023-03-08T01:11:27.066Z,68.45
2023-03-08T01:13:55.128Z,68.29
2023-03-08T01:16:31.130Z,67.85
2023-03-08T01:19:01.329Z,68.33
2023-03-08T01:21:31.040Z,69.36
2023-03-08T01:23:58.913Z,70.02
2023-03-08T01:26:28.519Z,69.25
2023-03-08T01:28:57.401Z,69.08
2023-03-08T01:31:27.350Z,69.19
2023-03-08T01:33:57.067Z,69.29
2023-03-08T01:36:26.637Z,69.01
2023-03-08T01:38:54.578Z,68.94
2023-03-08T01:41:28.136Z,69.17
2023-03-08T01:43:55.793Z,68.99
2023-03-08T01:46:36.574Z,69.69
2023-03-08T01:49:35.797Z,69.80
2023-03-08T01:52:12.278Z,70.76
2023-03-08T01:54:47.989Z,70.56
2023-03-08T01:57:24.649Z,70.64
2023-03-08T01:59:55.464Z,70.19
2023-03-08T02:02:28.509Z,70.54
2023-03-08T02:04:56.718Z,71.54
2023-03-08T02:07:24.326Z,71.40
2023-03-08T02:09:51.824Z,70.98
2023-03-08T02:12:19.980Z,70.57
2023-03-08T02:14:47.934Z,70.10
2023-03-08T02:17:15.377Z,70.21
2023-03-08T02:19:53.096Z,70.65
2023-03-08T02:22:21.157Z,70.89
2023-03-08T02:24:48.746Z,70.70
2023-03-08T02:27:27.174Z,71.07
2023-03-08T02:29:54.528Z,72.47
2023-03-08T02:32:23.509Z,72.33
2023-03-08T02:34:50.912Z,72.38
2023-03-08T02:37:18.225Z,72.78
2023-03-08T02:39:48.639Z,73.10
2023-03-08T02:42:16.045Z,72.93
2023-03-08T02:44:43.683Z,72.49
2023-03-08T02:47:11.103Z,72.46
2023-03-08T02:49:38.783Z,71.78
2023-03-08T02:52:06.185Z,71.67
2023-03-08T02:54:33.546Z,71.99
2023-03-08T02:57:01.859Z,72.15
2023-03-08T02:59:30.952Z,73.16
2023-03-08T03:01:59.704Z,73.79
2023-03-08T03:04:33.445Z,73.78
2023-03-08T03:07:01.194Z,74.04
2023-03-08T03:09:30.382Z,74.52
2023-03-08T03:11:58.049Z,74.74
2023-03-08T03:14:28.382Z,74.54
2023-03-08T03:16:56.849Z,74.74
2023-03-08T03:19:27.979Z,74.20
2023-03-08T03:21:55.612Z,74.84
2023-03-08T03:24:23.072Z,74.73
2023-03-08T03:26:54.354Z,74.88
2023-03-08T03:29:23.450Z,74.66
2023-03-08T03:31:56.877Z,73.96
2023-03-08T03:34:24.494Z,73.62
2023-03-08T03:36:52.455Z,73.44
2023-03-08T03:39:20.023Z,74.54
2023-03-08T03:41:49.125Z,74.54
2023-03-08T03:44:17.424Z,75.51
2023-03-08T03:46:47.291Z,75.22
2023-03-08T03:49:17.331Z,74.56
2023-03-08T03:51:46.763Z,74.40
2023-03-08T03:54:19.757Z,74.49
2023-03-08T03:56:48.789Z,73.84
2023-03-08T03:59:16.669Z,73.51
2023-03-08T04:01:44.377Z,73.95
2023-03-08T04:04:23.755Z,74.38
2023-03-08T04:06:53.454Z,74.75
2023-03-08T04:09:24.725Z,74.55
2023-03-08T04:12:05.724Z,74.45
2023-03-08T04:14:34.412Z,74.13
2023-03-08T04:17:01.984Z,74.68
2023-03-08T04:19:37.897Z,75.85
2023-03-08T04:22:06.612Z,75.90
2023-03-08T04:24:40.973Z,75.11
2023-03-08T04:27:12.849Z,75.50
2023-03-08T04:29:40.288Z,75.64
2023-03-08T04:32:08.329Z,75.27
2023-03-08T04:34:47.009Z,75.33
2023-03-08T04:37:17.777Z,74.92
2023-03-08T04:39:49.607Z,75.01
2023-03-08T04:42:18.125Z,75.68
2023-03-08T04:44:47.171Z,76.38
2023-03-08T04:47:18.713Z,76.97
2023-03-08T04:49:46.627Z,77.32
2023-03-08T04:52:14.068Z,76.78
2023-03-08T04:54:43.134Z,76.55
2023-03-08T04:57:36.632Z,75.83
2023-03-08T05:00:05.979Z,75.60
2023-03-08T05:02:37.579Z,75.39
2023-03-08T05:05:07.708Z,75.51
2023-03-08T05:07:35.646Z,74.74
2023-03-08T05:10:03.646Z,74.82
2023-03-08T05:12:31.078Z,75.18
2023-03-08T05:15:00.916Z,75.21
2023-03-08T05:17:28.815Z,75.94
2023-03-08T05:19:56.398Z,75.84
2023-03-08T05:22:31.628Z,75.99
2023-03-08T05:24:59.344Z,75.78
2023-03-08T05:27:27.727Z,76.38
2023-03-08T05:29:55.945Z,76.69
2023-03-08T05:32:23.539Z,75.86
2023-03-08T05:34:55.023Z,75.87
2023-03-08T05:37:30.791Z,75.84
2023-03-08T05:40:06.001Z,76.22
2023-03-08T05:42:35.815Z,75.88
2023-03-08T05:45:04.125Z,75.68
2023-03-08T05:47:35.998Z,76.11
2023-03-08T05:50:03.837Z,76.52
2023-03-08T05:52:35.168Z,76.80
2023-03-08T05:55:03.512Z,77.31
2023-03-08T05:57:31.050Z,76.75
2023-03-08T05:59:59.137Z,76.69
2023-03-08T06:02:29.040Z,76.00
2023-03-08T06:04:56.553Z,76.80
2023-03-08T06:07:27.308Z,76.71
2023-03-08T06:10:05.699Z,76.44
2023-03-08T06:12:33.186Z,76.81
2023-03-08T06:15:03.934Z,76.54
2023-03-08T06:17:35.415Z,76.46
2023-03-08T06:20:02.924Z,76.62
2023-03-08T06:22:33.113Z,76.35
2023-03-08T06:25:02.313Z,76.05
2023-03-08T06:27:34.463Z,76.37
2023-03-08T06:30:06.164Z,75.68
2023-03-08T06:32:35.719Z,76.23
2023-03-08T06:35:04.177Z,76.65
2023-03-08T06:37:34.650Z,76.53
2023-03-08T06:40:04.913Z,76.50
2023-03-08T06:42:41.112Z,75.93
2023-03-08T06:45:10.405Z,75.32
2023-03-08T06:47:37.737Z,75.31
2023-03-08T06:50:05.841Z,74.91
2023-03-08T06:52:37.738Z,73.85
2023-03-08T06:55:07.263Z,71.31
2023-03-08T06:57:34.695Z,70.80
2023-03-08T07:00:02.254Z,70.76
2023-03-08T07:02:29.689Z,71.17
2023-03-08T07:04:57.161Z,72.18
2023-03-08T07:07:24.596Z,73.36
2023-03-08T07:09:52.041Z,73.59
2023-03-08T07:12:19.536Z,74.12
2023-03-08T07:14:46.966Z,74.44
2023-03-08T07:17:14.438Z,74.53
2023-03-08T07:19:41.702Z,73.96
2023-03-08T07:22:09.046Z,73.10
2023-03-08T07:24:36.363Z,72.40
2023-03-08T07:27:04.019Z,71.74
2023-03-08T07:29:31.428Z,70.72
2023-03-08T07:31:58.772Z,68.06
2023-03-08T07:34:26.093Z,63.54
2023-03-08T07:36:53.442Z,62.02
2023-03-08T07:39:20.954Z,61.38
2023-03-08T07:41:48.452Z,60.02
2023-03-08T07:44:15.981Z,61.90
2023-03-08T07:46:43.845Z,63.08
2023-03-08T07:49:11.819Z,62.69
2023-03-08T07:51:39.420Z,63.49
2023-03-08T07:54:07.662Z,63.59
2023-03-08T07:56:35.042Z,64.05
2023-03-08T07:59:02.503Z,63.48
2023-03-08T08:01:30.092Z,64.35
2023-03-08T08:03:59.177Z,64.94
2023-03-08T08:06:27.978Z,63.94
2023-03-08T08:08:56.316Z,63.66
2023-03-08T08:11:23.705Z,63.22
2023-03-08T08:13:51.056Z,63.00
2023-03-08T08:16:18.871Z,62.79
2023-03-08T08:18:46.542Z,61.96
2023-03-08T08:21:16.152Z,62.50
2023-03-08T08:23:43.958Z,62.33
2023-03-08T08:26:26.605Z,61.53
2023-03-08T08:28:55.212Z,60.97
2023-03-08T08:31:24.913Z,60.80
2023-03-08T08:33:52.688Z,60.89
2023-03-08T08:36:21.276Z,59.83
2023-03-08T08:38:52.076Z,59.28
2023-03-08T08:41:21.802Z,58.71
2023-03-08T08:43:49.723Z,57.28
2023-03-08T08:46:17.573Z,56.54
2023-03-08T08:48:44.937Z,55.78
2023-03-08T08:51:14.659Z,55.08
2023-03-08T08:53:42.066Z,57.14
2023-03-08T08:56:23.757Z,57.27
2023-03-08T08:58:53.677Z,56.83
2023-03-08T09:01:27.079Z,56.42
2023-03-08T09:03:54.586Z,56.12
2023-03-08T09:06:23.489Z,55.68
2023-03-08T09:08:52.501Z,55.06
2023-03-08T09:11:19.907Z,54.30
2023-03-08T09:13:47.251Z,53.57
2023-03-08T09:16:31.534Z,52.47
2023-03-08T09:19:00.827Z,54.01
2023-03-08T09:21:29.239Z,53.74
2023-03-08T09:24:00.520Z,53.54
2023-03-08T09:26:34.701Z,52.12
2023-03-08T09:29:05.611Z,52.71
2023-03-08T09:31:35.374Z,54.30
2023-03-08T09:34:05.261Z,54.66
2023-03-08T09:36:32.610Z,55.27
2023-03-08T09:39:00.120Z,54.79
2023-03-08T09:41:36.120Z,54.97
2023-03-08T09:44:16.460Z,55.52
2023-03-08T09:46:53.330Z,54.83
2023-03-08T09:49:29.962Z,55.70
2023-03-08T09:52:06.995Z,55.81
2023-03-08T09:54:38.385Z,56.16
2023-03-08T09:57:11.950Z,55.89
2023-03-08T09:59:54.614Z,56.98
2023-03-08T10:02:50.079Z,58.00
2023-03-08T10:05:26.892Z,58.24
2023-03-08T10:08:15.829Z,57.93
2023-03-08T10:11:13.538Z,58.51
2023-03-08T10:13:43.992Z,58.17
2023-03-08T10:16:25.029Z,57.79
2023-03-08T10:19:01.287Z,57.80
2023-03-08T10:21:32.137Z,58.12
2023-03-08T10:24:26.630Z,57.56
2023-03-08T10:27:11.331Z,57.16
2023-03-08T10:29:39.014Z,57.54
2023-03-08T10:32:07.352Z,57.58
2023-03-08T10:34:35.190Z,58.26
2023-03-08T10:37:06.460Z,57.83
2023-03-08T10:39:36.427Z,57.20
2023-03-08T10:42:15.597Z,56.65
2023-03-08T10:44:57.369Z,56.84
2023-03-08T10:47:26.370Z,56.76
2023-03-08T10:50:13.934Z,57.01
2023-03-08T10:52:42.148Z,56.74
2023-03-08T10:55:09.673Z,55.84
2023-03-08T10:57:38.411Z,56.05
2023-03-08T11:00:43.133Z,55.79
2023-03-08T11:03:10.529Z,55.62
2023-03-08T11:05:38.594Z,56.07
2023-03-08T11:08:18.121Z,56.40
2023-03-08T11:10:48.670Z,56.62
2023-03-08T11:13:26.429Z,56.25
2023-03-08T11:16:01.389Z,57.08
2023-03-08T11:18:39.973Z,56.94
2023-03-08T11:21:17.471Z,56.55
2023-03-08T11:24:01.867Z,55.87
2023-03-08T11:26:57.800Z,55.90
2023-03-08T11:29:47.220Z,54.66
2023-03-08T11:32:49.764Z,55.31
2023-03-08T11:35:27.021Z,55.72
2023-03-08T11:38:32.941Z,55.99
2023-03-08T11:41:09.355Z,54.93
2023-03-08T11:43:42.365Z,56.15
2023-03-08T11:46:29.041Z,55.42
2023-03-08T11:49:37.193Z,54.92
2023-03-08T11:52:35.739Z,54.37
2023-03-08T11:55:20.634Z,54.36
2023-03-08T11:57:58.154Z,54.01
2023-03-08T12:00:36.549Z,54.36
2023-03-08T12:03:15.486Z,54.47
2023-03-08T12:05:49.489Z,54.63
2023-03-08T12:08:27.356Z,54.52
2023-03-08T12:11:10.190Z,54.47
2023-03-08T12:13:42.077Z,53.84
2023-03-08T12:16:22.992Z,52.78
2023-03-08T12:19:06.674Z,52.94
2023-03-08T12:21:58.496Z,53.23
2023-03-08T12:24:44.093Z,52.09
2023-03-08T12:27:29.995Z,53.08
2023-03-08T12:30:23.718Z,52.71
2023-03-08T12:32:54.758Z,52.71
2023-03-08T12:35:28.257Z,52.96
2023-03-08T12:38:17.577Z,52.97
2023-03-08T12:40:52.835Z,52.91
2023-03-08T12:43:20.183Z,52.46
2023-03-08T12:46:01.395Z,52.78
2023-03-08T12:48:35.818Z,52.56
2023-03-08T12:51:12.623Z,52.74
2023-03-08T12:53:55.555Z,52.95
2023-03-08T12:56:29.927Z,52.55
2023-03-08T12:59:03.774Z,51.73
2023-03-08T13:01:38.808Z,51.99
2023-03-08T13:04:41.694Z,52.29
2023-03-08T13:07:31.980Z,52.06
2023-03-08T13:10:03.232Z,51.88
2023-03-08T13:12:51.082Z,51.44
2023-03-08T13:15:23.078Z,51.82
2023-03-08T13:18:06.321Z,51.92
2023-03-08T13:20:41.634Z,52.35
2023-03-08T13:23:15.558Z,52.58
2023-03-08T13:26:20.909Z,52.44
2023-03-08T13:28:49.101Z,51.82
2023-03-08T13:31:20.475Z,51.44
2023-03-08T13:33:50.708Z,51.76
2023-03-08T13:36:29.285Z,51.85
2023-03-08T13:39:08.749Z,52.35
2023-03-08T13:41:45.282Z,51.78
2023-03-08T13:44:25.143Z,52.40
2023-03-08T13:46:58.680Z,50.92
2023-03-08T13:49:32.310Z,50.97
2023-03-08T13:52:04.368Z,50.86
2023-03-08T13:54:39.185Z,51.08
2023-03-08T13:57:26.434Z,51.23
2023-03-08T14:00:01.200Z,51.06
2023-03-08T14:02:34.990Z,50.89
2023-03-08T14:05:18.552Z,50.54
2023-03-08T14:08:50.592Z,50.77
2023-03-08T14:11:23.830Z,50.21
2023-03-08T14:13:55.115Z,50.09
2023-03-08T14:16:42.327Z,50.88
2023-03-08T14:19:12.687Z,51.26
2023-03-08T14:21:53.541Z,51.73
2023-03-08T14:24:42.644Z,51.40
2023-03-08T14:27:15.855Z,51.53
2023-03-08T14:29:45.415Z,51.33
2023-03-08T14:32:13.311Z,51.23
2023-03-08T14:34:49.990Z,50.96
2023-03-08T14:37:29.051Z,51.13
2023-03-08T14:40:11.596Z,50.99
2023-03-08T14:42:44.224Z,50.94
2023-03-08T14:45:33.296Z,51.08
2023-03-08T14:48:14.824Z,51.82
2023-03-08T14:50:56.305Z,52.02
2023-03-08T14:53:38.783Z,51.78
2023-03-08T14:56:12.492Z,52.12
2023-03-08T14:58:43.706Z,52.65
2023-03-08T15:01:11.135Z,52.57
2023-03-08T15:03:39.139Z,52.64
2023-03-08T15:06:21.057Z,52.57
2023-03-08T15:08:49.148Z,52.64
2023-03-08T15:11:17.268Z,52.58
2023-03-08T15:13:46.079Z,53.30
2023-03-08T15:16:14.597Z,53.26
2023-03-08T15:18:42.628Z,53.06
2023-03-08T15:21:17.624Z,53.53
2023-03-08T15:23:45.303Z,53.89
2023-03-08T15:26:21.004Z,54.42
2023-03-08T15:28:48.470Z,54.23
2023-03-08T15:31:15.780Z,54.17
2023-03-08T15:33:43.236Z,54.96
2023-03-08T15:36:14.749Z,54.63
2023-03-08T15:38:42.602Z,54.52
2023-03-08T15:41:17.322Z,54.35
2023-03-08T15:43:44.816Z,54.01
2023-03-08T15:46:13.786Z,53.95
2023-03-08T15:48:42.308Z,53.94
2023-03-08T15:51:21.294Z,54.33
2023-03-08T15:53:49.901Z,54.43
2023-03-08T15:56:17.522Z,54.64
2023-03-08T15:58:44.857Z,54.80
2023-03-08T16:01:12.205Z,54.63
2023-03-08T16:03:39.657Z,54.56
2023-03-08T16:06:11.748Z,54.68
2023-03-08T16:08:39.814Z,55.17
2023-03-08T16:11:08.510Z,55.29
2023-03-08T16:13:35.820Z,54.79
2023-03-08T16:16:04.832Z,54.87
2023-03-08T16:18:33.595Z,55.68
2023-03-08T16:21:01.146Z,55.71
2023-03-08T16:23:28.472Z,55.95
2023-03-08T16:26:38.817Z,56.27
2023-03-08T16:29:06.136Z,55.93
2023-03-08T16:31:33.990Z,56.35
2023-03-08T16:34:05.653Z,56.75
2023-03-08T16:36:34.297Z,56.69
2023-03-08T16:39:01.563Z,56.79
2023-03-08T16:41:30.112Z,56.46
2023-03-08T16:43:58.086Z,56.86
2023-03-08T16:46:25.451Z,56.83
2023-03-08T16:48:54.599Z,57.17
2023-03-08T16:51:25.356Z,57.22
2023-03-08T16:53:52.972Z,57.51
2023-03-08T16:56:23.636Z,57.44
2023-03-08T16:58:51.852Z,57.38
2023-03-08T17:01:19.704Z,57.28
2023-03-08T17:03:47.441Z,57.78
2023-03-08T17:06:20.359Z,58.11
2023-03-08T17:08:48.112Z,58.53
2023-03-08T17:11:16.468Z,58.92
2023-03-08T17:13:47.048Z,59.66
2023-03-08T17:16:15.104Z,59.92
2023-03-08T17:18:42.643Z,60.24
2023-03-08T17:21:10.057Z,60.52
2023-03-08T17:23:37.398Z,60.41
2023-03-08T17:29:14.608Z,60.28
2023-03-08T17:31:42.067Z,60.56
2023-03-08T17:34:09.757Z,60.29
2023-03-08T17:36:37.300Z,60.20
2023-03-08T17:39:04.756Z,59.85
2023-03-08T17:41:32.625Z,59.91
2023-03-08T17:44:00.039Z,60.00
2023-03-08T17:46:27.934Z,59.76
2023-03-08T17:48:56.079Z,59.61
2023-03-08T17:51:25.835Z,59.35
2023-03-08T17:53:54.259Z,59.37
2023-03-08T17:56:26.438Z,59.54
2023-03-08T17:58:55.884Z,59.75
2023-03-08T18:01:25.745Z,59.55
2023-03-08T18:03:55.350Z,59.53
2023-03-08T18:06:38.284Z,59.58
2023-03-08T18:09:08.420Z,59.29
2023-03-08T18:11:37.847Z,59.11
2023-03-08T18:14:07.271Z,58.37
2023-03-08T18:16:35.212Z,58.52
2023-03-08T18:19:04.316Z,59.11
2023-03-08T18:21:33.575Z,59.03
2023-03-08T18:24:01.085Z,59.65
2023-03-08T18:26:36.424Z,60.00
2023-03-08T18:29:03.858Z,59.82
2023-03-08T18:31:35.033Z,59.62
2023-03-08T18:34:02.971Z,59.98
2023-03-08T18:36:30.795Z,60.21
2023-03-08T18:38:58.362Z,60.00
2023-03-08T18:41:28.004Z,60.45
2023-03-08T18:43:57.621Z,60.32
2023-03-08T18:46:30.375Z,59.68
2023-03-08T18:49:01.027Z,59.48
2023-03-08T18:51:30.095Z,59.52
2023-03-08T18:53:58.516Z,60.12
2023-03-08T18:56:27.426Z,60.62
2023-03-08T18:58:57.463Z,60.77
2023-03-08T19:01:25.294Z,60.80
2023-03-08T19:03:52.631Z,60.90
2023-03-08T19:06:20.166Z,60.86
2023-03-08T19:08:47.610Z,61.45
2023-03-08T19:11:18.811Z,61.55
2023-03-08T19:13:46.788Z,61.46
2023-03-08T19:16:21.204Z,61.78
2023-03-08T19:18:50.116Z,62.12
2023-03-08T19:21:20.344Z,61.91
2023-03-08T19:23:48.390Z,62.28
2023-03-08T19:26:37.395Z,62.23
2023-03-08T19:29:11.407Z,62.65
2023-03-08T19:31:44.936Z,62.81
2023-03-08T19:34:13.685Z,62.94
2023-03-08T19:36:43.240Z,63.00
2023-03-08T19:39:15.343Z,63.10
2023-03-08T19:41:43.576Z,62.91
2023-03-08T19:44:11.074Z,63.02
2023-03-08T19:46:39.680Z,62.88
2023-03-08T19:49:08.888Z,62.97
2023-03-08T19:51:36.513Z,63.33
2023-03-08T19:54:06.037Z,63.38
2023-03-08T19:56:34.338Z,63.71
2023-03-08T19:59:02.395Z,63.77
2023-03-08T20:01:29.922Z,63.95
2023-03-08T20:03:57.641Z,63.90
2023-03-08T20:06:37.155Z,63.94
2023-03-08T20:09:07.483Z,63.62
2023-03-08T20:11:35.025Z,63.88
2023-03-08T20:14:02.802Z,64.00
2023-03-08T20:16:31.374Z,64.12
2023-03-08T20:18:58.941Z,64.33
2023-03-08T20:21:28.567Z,64.15
2023-03-08T20:23:57.578Z,64.39
2023-03-08T20:27:09.460Z,64.38
2023-03-08T20:29:36.863Z,64.60
2023-03-08T20:32:04.545Z,64.47
2023-03-08T20:34:32.716Z,64.35
2023-03-08T20:37:00.127Z,64.27
2023-03-08T20:39:27.526Z,64.28
2023-03-08T20:41:56.081Z,64.29
2023-03-08T20:44:23.608Z,64.45
2023-03-08T20:46:51.055Z,64.61
2023-03-08T20:49:18.529Z,64.45
2023-03-08T20:51:46.004Z,64.72
2023-03-08T20:54:13.825Z,64.09
2023-03-08T20:56:41.282Z,64.28
2023-03-08T20:59:08.678Z,64.45
2023-03-08T21:01:36.940Z,64.62
2023-03-08T21:04:05.361Z,64.70
2023-03-08T21:06:32.802Z,64.76
2023-03-08T21:09:00.968Z,65.03
2023-03-08T21:11:29.023Z,64.59
2023-03-08T21:13:56.636Z,64.65
2023-03-08T21:16:25.919Z,64.89
2023-03-08T21:18:56.421Z,65.13
2023-03-08T21:21:35.800Z,65.01
2023-03-08T21:24:07.112Z,64.92
2023-03-08T21:26:34.878Z,65.33
2023-03-08T21:29:05.156Z,65.41
2023-03-08T21:31:35.008Z,64.94
2023-03-08T21:34:04.010Z,64.87
2023-03-08T21:36:31.954Z,64.95
2023-03-08T21:38:59.551Z,64.53
2023-03-08T21:41:30.331Z,64.92
2023-03-08T21:43:58.388Z,64.77
2023-03-08T21:46:25.969Z,65.03
2023-03-08T21:48:55.416Z,65.02
2023-03-08T21:51:23.937Z,65.16
2023-03-08T21:53:51.572Z,64.98
2023-03-08T21:56:19.717Z,65.05
2023-03-08T21:58:47.158Z,65.18
2023-03-08T22:01:23.114Z,65.01
2023-03-08T22:03:50.767Z,65.09
2023-03-08T22:06:19.090Z,65.30
2023-03-08T22:08:46.884Z,65.31
2023-03-08T22:11:15.146Z,65.18
2023-03-08T22:13:43.121Z,65.46
2023-03-08T22:16:10.763Z,65.54
2023-03-08T22:18:38.167Z,65.76
2023-03-08T22:21:05.632Z,65.54
2023-03-08T22:23:33.110Z,65.31
2023-03-08T22:26:00.597Z,65.59
2023-03-08T22:28:27.942Z,65.29
2023-03-08T22:30:55.315Z,65.70
2023-03-08T22:33:22.710Z,66.18
2023-03-08T22:35:50.143Z,66.13
2023-03-08T22:38:19.345Z,65.81
2023-03-08T22:40:46.712Z,65.58
2023-03-08T22:43:14.227Z,65.87
2023-03-08T22:45:41.626Z,65.94
2023-03-08T22:48:09.252Z,65.83
2023-03-08T22:50:36.652Z,65.75
2023-03-08T22:53:04.060Z,65.71
2023-03-08T22:55:31.565Z,65.82
2023-03-08T22:57:59.345Z,65.95
2023-03-08T23:00:26.870Z,66.48
2023-03-08T23:02:58.237Z,66.30
2023-03-08T23:05:25.646Z,66.12
2023-03-08T23:07:53.311Z,66.11
2023-03-08T23:10:21.454Z,65.75
2023-03-08T23:12:48.941Z,65.60
2023-03-08T23:15:16.420Z,65.50
2023-03-08T23:17:43.810Z,65.68
2023-03-08T23:20:12.110Z,65.63
2023-03-08T23:22:39.469Z,66.39
2023-03-08T23:25:07.274Z,66.58
2023-03-08T23:27:34.659Z,66.35
2023-03-08T23:30:02.222Z,66.36
2023-03-08T23:32:29.650Z,66.32
2023-03-08T23:34:57.181Z,65.57
2023-03-08T23:37:24.610Z,66.33
2023-03-08T23:39:52.262Z,66.99
2023-03-08T23:42:19.583Z,66.78
2023-03-08T23:44:46.983Z,66.86
2023-03-08T23:47:14.364Z,67.19
2023-03-08T23:49:41.684Z,67.27
2023-03-08T23:52:09.050Z,67.74
2023-03-08T23:54:36.475Z,67.60
2023-03-08T23:57:03.964Z,67.97
2023-03-08T23:59:31.366Z,68.58
